Terminal Aerodrome Forecast
Issued by NWS

Home | Current Version | Previous Version | Text Only | Print | Product List | Glossary On
Versions: 1 2 3 4 5 6 7 8 9 10 11 12 13 14 15 16 17 18 19
000
FTAK31 PAJN 301125
TAFAKT
TAF
PAKT 301125Z 3012/3112 00000KT P6SM VCSH SCT020 BKN027 OVC035
     FM301800 34005KT P6SM FEW020 SCT025 BKN050
     FM302100 34010KT P6SM SCT030 BKN060
     FM310300 32005KT P6SM FEW015 SCT025 BKN050
     FM310800 31004KT 6SM BR SCT007 BKN050
      AMD LTD TO CLD VIS AND WIND 3012/3015=

USA.gov is the U.S. government's official web portal to all federal, state and local government web resources and services.